This is the latest recevied weather packets stored in our database for station/object E22FEY-1. If no packets are shown the sender has not sent any weather packets the latest 10 day(s).
| Time | Temp. | Humidity | Pressure | Rain* | Wind** | Luminosity | Snow |
|---|---|---|---|---|---|---|---|
| 1777549645 | 36.11° C | 50% | 1007 hPa | - | - | 0 W/m² | - |
| 1777548721 | 36.67° C | 48% | 1007 hPa | - | - | 0 W/m² | - |
| 1777547796 | 36.11° C | 48% | 1006 hPa | - | - | 0 W/m² | - |
| 1777546872 | 36.11° C | 49% | 1006 hPa | - | - | 0 W/m² | - |
| 1777545947 | 37.22° C | 45% | 1006 hPa | - | - | 0 W/m² | - |
| 1777545023 | 36.67° C | 46% | 1006 hPa | - | - | 0 W/m² | - |
| 1777544098 | 37.22° C | 45% | 1006 hPa | - | - | 0 W/m² | - |
| 1777543173 | 38.33° C | 42% | 1006 hPa | - | - | 0 W/m² | - |
| 1777542249 | 38.33° C | 42% | 1006 hPa | - | - | 0 W/m² | - |
| 1777541325 | 38.89° C | 41% | 1006 hPa | - | - | 0 W/m² | - |
| 1777540401 | 38.89° C | 42% | 1006 hPa | - | - | 0 W/m² | - |
| 1777539476 | 38.33° C | 42% | 1006 hPa | - | - | 0 W/m² | - |
| 1777538551 | 38.89° C | 41% | 1006 hPa | - | - | 0 W/m² | - |
| 1777537627 | 38.89° C | 40% | 1006 hPa | - | - | 0 W/m² | - |
| 1777536703 | 39.44° C | 39% | 1006 hPa | - | - | 0 W/m² | - |
| 1777535779 | 38.89° C | 40% | 1007 hPa | - | - | 0 W/m² | - |
| 1777534854 | 40° C | 39% | 1007 hPa | - | - | 0 W/m² | - |
| 1777533930 | 39.44° C | 39% | 1007 hPa | - | - | 0 W/m² | - |
| 1777533006 | 38.89° C | 40% | 1008 hPa | - | - | 0 W/m² | - |
| 1777532080 | 38.89° C | 40% | 1008 hPa | - | - | 0 W/m² | - |
| 1777531154 | 38.89° C | 39% | 1008 hPa | - | - | 0 W/m² | - |
| 1777530230 | 38.89° C | 40% | 1008 hPa | - | - | 0 W/m² | - |
| 1777529305 | 38.89° C | 40% | 1008 hPa | - | - | 0 W/m² | - |
| 1777528381 | 38.89° C | 41% | 1009 hPa | - | - | 0 W/m² | - |
| 1777527456 | 38.33° C | 42% | 1009 hPa | - | - | 0 W/m² | - |
* Rain since midnight (hover to see other rain measurements)
** Current wind speed in m/s (hover to see current wind gust speed)